Tranbjerg, Denmark
Current Conditions -  °F | °C
As of 8:20 PM on Thursday 30 Oct 2014 (Local Time) from EKAH Reporting Station
Broken Clouds Broken Clouds  
Wind Chill: 36°   Ceiling: 13000
Heat Index: 39°   Visibility: 3mi
Dew Point: 36°   Wind: 5mph
Humidity: 87%   Direction: 160°SSE
Pressure: 30.27"   Gusts: NA
Location:  56.09°N, 10.12°E
Report Text: EKAH 301920Z AUTO 16004KT 5000NDV BKN130/// 04/02 Q1025
Loading
Personal Weather Stations






























Interactive Weather Map
Tropical Storm Tracking
New forecast layout! Learn more

10-Day Weather Forecast

Advertisements
Track Severe Weather on mobile